Airfield :







YOU CAN JOIN US ON...

 
LOGIN :

Register | Disclaimer

   EN    FR    IT 

 









Legend :    VFR   Marginal VFR   IFR   Intensive IFR   Very Intensive IFR
Visi :
Ceiling :
>= 8 km
>= 3000ft
5 to 8 km
1000 to 3000 ft
1500m to 5 km
500 to 1000 ft
800 to 1500m
200 to 500 ft
< 800m
< 200 ft
Symbols :   Thunderstorms  Fog  Heavy snow  Heavy precipitations  Wind > 20 kt






- Airport Elevation : 121 ft
- IATA code : YBX


CYBX - Lourdes De Blanc Sablon

CURRENT METAR :
  • 280000Z 12004KT 080V150 15SM OVC140 07/01 A3014 RMK AC8 SLP211

EXPIRED METARs :
  • 272300Z 16003KT 15SM BKN160 09/02 A3015 RMK AC7 SLP212
  • 272200Z 00000KT 15SM BKN180 10/01 A3017 RMK AC7 SLP219

TAF TAF CYBX
Valid from the 27 at 20:00 until the 28 at 08:00 UTC


271930Z 2720/2808 24008KT P6SM BKN210
FM280100 10005KT P6SM OVC120 RMK NXT FCST BY 280200Z
CZUL FIR / North America



MET'MAP, your aeronautical weather chart ! - Copyright ORBIFLY December 2007 - Disclaimer

ORBIFLY MET'MAP TEAM :

Programming & Development : Alexandra Zaïnal
Concept & original design : Baudouin d'Aumeries
Assistance for programming : Marc-Olivier Méhu
Technical & hardware support : Manuel Goepfert

Contact : metmap@orbifly.com




SOURCES & CREDITS :

   NOAA